sensor_id;sensor_type;location;lat;lon;timestamp;temperature;humidity
3752;DHT22;50827;47.014;7.652;2022-12-17T00:01:32;0.60;99.90
3752;DHT22;50827;47.014;7.652;2022-12-17T00:04:17;0.50;99.90
3752;DHT22;50827;47.014;7.652;2022-12-17T00:07:02;0.60;99.90
3752;DHT22;50827;47.014;7.652;2022-12-17T00:09:48;0.60;99.90
3752;DHT22;50827;47.014;7.652;2022-12-17T00:12:33;0.50;99.90
3752;DHT22;50827;47.014;7.652;2022-12-17T00:15:23;0.50;99.90
3752;DHT22;50827;47.014;7.652;2022-12-17T00:18:08;0.60;99.90
3752;DHT22;50827;47.014;7.652;2022-12-17T00:20:54;0.70;99.90
3752;DHT22;50827;47.014;7.652;2022-12-17T00:23:40;0.70;99.90
3752;DHT22;50827;47.014;7.652;2022-12-17T00:26:25;0.80;99.90
3752;DHT22;50827;47.014;7.652;2022-12-17T00:29:10;0.70;99.90
3752;DHT22;50827;47.014;7.652;2022-12-17T00:31:56;0.60;99.90
3752;DHT22;50827;47.014;7.652;2022-12-17T00:34:41;0.60;99.90
3752;DHT22;50827;47.014;7.652;2022-12-17T00:37:27;0.60;99.90
3752;DHT22;50827;47.014;7.652;2022-12-17T00:40:12;0.80;99.90
3752;DHT22;50827;47.014;7.652;2022-12-17T00:43:06;0.90;99.90
3752;DHT22;50827;47.014;7.652;2022-12-17T00:45:52;0.80;99.90
3752;DHT22;50827;47.014;7.652;2022-12-17T00:48:37;0.80;99.90
3752;DHT22;50827;47.014;7.652;2022-12-17T00:51:23;0.80;99.90
3752;DHT22;50827;47.014;7.652;2022-12-17T00:54:09;0.80;99.90
3752;DHT22;50827;47.014;7.652;2022-12-17T00:56:54;0.80;99.90
3752;DHT22;50827;47.014;7.652;2022-12-17T00:59:39;1.00;99.90
3752;DHT22;50827;47.014;7.652;2022-12-17T01:02:25;1.00;99.90
3752;DHT22;50827;47.014;7.652;2022-12-17T01:05:11;1.00;99.90
3752;DHT22;50827;47.014;7.652;2022-12-17T01:07:56;1.10;99.90
3752;DHT22;50827;47.014;7.652;2022-12-17T01:10:49;1.10;99.90
3752;DHT22;50827;47.014;7.652;2022-12-17T01:13:35;1.10;99.90
3752;DHT22;50827;47.014;7.652;2022-12-17T01:16:21;1.10;99.90
3752;DHT22;50827;47.014;7.652;2022-12-17T01:19:07;1.10;99.90
3752;DHT22;50827;47.014;7.652;2022-12-17T01:21:53;1.20;99.90
3752;DHT22;50827;47.014;7.652;2022-12-17T01:24:38;1.20;99.90
3752;DHT22;50827;47.014;7.652;2022-12-17T01:27:23;1.10;99.90
3752;DHT22;50827;47.014;7.652;2022-12-17T01:30:09;1.10;99.90
3752;DHT22;50827;47.014;7.652;2022-12-17T01:33:00;1.10;99.90
3752;DHT22;50827;47.014;7.652;2022-12-17T01:35:46;1.20;99.90
3752;DHT22;50827;47.014;7.652;2022-12-17T01:38:31;1.20;99.90
3752;DHT22;50827;47.014;7.652;2022-12-17T01:41:16;1.20;99.90
3752;DHT22;50827;47.014;7.652;2022-12-17T01:47:57;1.30;99.90
3752;DHT22;50827;47.014;7.652;2022-12-17T01:50:47;1.30;99.90
3752;DHT22;50827;47.014;7.652;2022-12-17T01:53:40;1.20;99.90
3752;DHT22;50827;47.014;7.652;2022-12-17T01:56:27;1.30;99.90
3752;DHT22;50827;47.014;7.652;2022-12-17T01:59:13;1.20;99.90
3752;DHT22;50827;47.014;7.652;2022-12-17T02:02:15;1.30;99.90
3752;DHT22;50827;47.014;7.652;2022-12-17T02:05:01;1.30;99.90
3752;DHT22;50827;47.014;7.652;2022-12-17T02:08:06;1.20;99.90
3752;DHT22;50827;47.014;7.652;2022-12-17T02:11:25;1.20;99.90
3752;DHT22;50827;47.014;7.652;2022-12-17T02:14:22;1.10;99.90
3752;DHT22;50827;47.014;7.652;2022-12-17T02:17:12;1.10;99.90
3752;DHT22;50827;47.014;7.652;2022-12-17T02:20:50;1.10;99.90
3752;DHT22;50827;47.014;7.652;2022-12-17T02:23:30;1.00;99.90
3752;DHT22;50827;47.014;7.652;2022-12-17T02:26:37;1.00;99.90
3752;DHT22;50827;47.014;7.652;2022-12-17T02:29:26;1.00;99.90
3752;DHT22;50827;47.014;7.652;2022-12-17T02:32:14;1.00;99.90
3752;DHT22;50827;47.014;7.652;2022-12-17T02:35:03;1.00;99.90
3752;DHT22;50827;47.014;7.652;2022-12-17T02:37:51;1.10;99.90
3752;DHT22;50827;47.014;7.652;2022-12-17T02:40:36;1.10;99.90
3752;DHT22;50827;47.014;7.652;2022-12-17T02:43:24;1.10;99.90
3752;DHT22;50827;47.014;7.652;2022-12-17T02:46:11;1.10;99.90
3752;DHT22;50827;47.014;7.652;2022-12-17T02:48:57;1.20;99.90
3752;DHT22;50827;47.014;7.652;2022-12-17T02:51:42;1.20;99.90
3752;DHT22;50827;47.014;7.652;2022-12-17T02:54:32;1.20;99.90
3752;DHT22;50827;47.014;7.652;2022-12-17T02:57:19;1.30;99.90
3752;DHT22;50827;47.014;7.652;2022-12-17T03:00:09;1.30;99.90
3752;DHT22;50827;47.014;7.652;2022-12-17T03:02:55;1.30;99.90
3752;DHT22;50827;47.014;7.652;2022-12-17T03:05:40;1.30;99.90
3752;DHT22;50827;47.014;7.652;2022-12-17T03:08:26;1.20;99.90
3752;DHT22;50827;47.014;7.652;2022-12-17T03:11:11;1.10;99.90
3752;DHT22;50827;47.014;7.652;2022-12-17T03:13:56;1.10;99.90
3752;DHT22;50827;47.014;7.652;2022-12-17T03:16:41;1.10;99.90
3752;DHT22;50827;47.014;7.652;2022-12-17T03:19:27;1.10;99.90
3752;DHT22;50827;47.014;7.652;2022-12-17T03:22:12;1.10;99.90
3752;DHT22;50827;47.014;7.652;2022-12-17T03:24:57;1.10;99.90
3752;DHT22;50827;47.014;7.652;2022-12-17T03:27:43;1.20;99.90
3752;DHT22;50827;47.014;7.652;2022-12-17T03:30:28;1.20;99.90
3752;DHT22;50827;47.014;7.652;2022-12-17T03:33:15;1.20;99.90
3752;DHT22;50827;47.014;7.652;2022-12-17T03:36:01;1.20;99.90
3752;DHT22;50827;47.014;7.652;2022-12-17T03:38:46;1.20;99.90
3752;DHT22;50827;47.014;7.652;2022-12-17T03:41:32;1.20;99.90
3752;DHT22;50827;47.014;7.652;2022-12-17T03:44:17;1.30;99.90
3752;DHT22;50827;47.014;7.652;2022-12-17T03:47:02;1.30;99.90
3752;DHT22;50827;47.014;7.652;2022-12-17T03:49:47;1.30;99.90
3752;DHT22;50827;47.014;7.652;2022-12-17T03:52:32;1.30;99.90
3752;DHT22;50827;47.014;7.652;2022-12-17T03:55:18;1.30;99.90
3752;DHT22;50827;47.014;7.652;2022-12-17T03:58:03;1.30;99.90
3752;DHT22;50827;47.014;7.652;2022-12-17T04:00:48;1.30;99.90
3752;DHT22;50827;47.014;7.652;2022-12-17T04:03:34;1.30;99.90
3752;DHT22;50827;47.014;7.652;2022-12-17T04:06:19;1.30;99.90
3752;DHT22;50827;47.014;7.652;2022-12-17T04:09:04;1.40;99.90
3752;DHT22;50827;47.014;7.652;2022-12-17T04:11:49;1.40;99.90
3752;DHT22;50827;47.014;7.652;2022-12-17T04:14:35;1.40;99.90
3752;DHT22;50827;47.014;7.652;2022-12-17T04:17:20;1.40;99.90
3752;DHT22;50827;47.014;7.652;2022-12-17T04:20:06;1.40;99.90
3752;DHT22;50827;47.014;7.652;2022-12-17T04:22:51;1.40;99.90
3752;DHT22;50827;47.014;7.652;2022-12-17T04:25:36;1.40;99.90
3752;DHT22;50827;47.014;7.652;2022-12-17T04:28:21;1.40;99.90
3752;DHT22;50827;47.014;7.652;2022-12-17T04:31:07;1.50;99.90
3752;DHT22;50827;47.014;7.652;2022-12-17T04:33:52;1.50;99.90
3752;DHT22;50827;47.014;7.652;2022-12-17T04:36:38;1.50;99.90
3752;DHT22;50827;47.014;7.652;2022-12-17T04:39:24;1.50;99.90
3752;DHT22;50827;47.014;7.652;2022-12-17T04:42:09;1.50;99.90
3752;DHT22;50827;47.014;7.652;2022-12-17T04:44:54;1.50;99.90
3752;DHT22;50827;47.014;7.652;2022-12-17T04:47:40;1.50;99.90
3752;DHT22;50827;47.014;7.652;2022-12-17T04:50:25;1.40;99.90
3752;DHT22;50827;47.014;7.652;2022-12-17T04:53:10;1.50;99.90
3752;DHT22;50827;47.014;7.652;2022-12-17T04:55:56;1.40;99.90
3752;DHT22;50827;47.014;7.652;2022-12-17T04:58:41;1.40;99.90
3752;DHT22;50827;47.014;7.652;2022-12-17T05:01:26;1.40;99.90
3752;DHT22;50827;47.014;7.652;2022-12-17T05:04:12;1.40;99.90
3752;DHT22;50827;47.014;7.652;2022-12-17T05:06:57;1.50;99.90
3752;DHT22;50827;47.014;7.652;2022-12-17T05:09:42;1.50;99.90
3752;DHT22;50827;47.014;7.652;2022-12-17T05:12:27;1.50;99.90
3752;DHT22;50827;47.014;7.652;2022-12-17T05:15:13;1.50;99.90
3752;DHT22;50827;47.014;7.652;2022-12-17T05:18:06;1.60;99.90
3752;DHT22;50827;47.014;7.652;2022-12-17T05:20:52;1.60;99.90
3752;DHT22;50827;47.014;7.652;2022-12-17T05:23:37;1.60;99.90
3752;DHT22;50827;47.014;7.652;2022-12-17T05:26:25;1.70;99.90
3752;DHT22;50827;47.014;7.652;2022-12-17T05:29:10;1.60;99.90
3752;DHT22;50827;47.014;7.652;2022-12-17T05:31:56;1.50;99.90
3752;DHT22;50827;47.014;7.652;2022-12-17T05:34:41;1.50;99.90
3752;DHT22;50827;47.014;7.652;2022-12-17T05:37:27;1.60;99.90
3752;DHT22;50827;47.014;7.652;2022-12-17T05:40:12;1.50;99.90
3752;DHT22;50827;47.014;7.652;2022-12-17T05:43:02;1.30;99.90
3752;DHT22;50827;47.014;7.652;2022-12-17T05:45:48;1.40;99.90
3752;DHT22;50827;47.014;7.652;2022-12-17T05:48:34;1.40;99.90
3752;DHT22;50827;47.014;7.652;2022-12-17T05:51:20;1.40;99.90
3752;DHT22;50827;47.014;7.652;2022-12-17T05:54:06;1.40;99.90
3752;DHT22;50827;47.014;7.652;2022-12-17T05:56:52;1.40;99.90
3752;DHT22;50827;47.014;7.652;2022-12-17T05:59:37;1.40;99.90
3752;DHT22;50827;47.014;7.652;2022-12-17T06:02:23;1.50;99.90
3752;DHT22;50827;47.014;7.652;2022-12-17T06:05:09;1.50;99.90
3752;DHT22;50827;47.014;7.652;2022-12-17T06:08:02;1.50;99.90
3752;DHT22;50827;47.014;7.652;2022-12-17T06:10:47;1.50;99.90
3752;DHT22;50827;47.014;7.652;2022-12-17T06:13:32;1.50;99.90
3752;DHT22;50827;47.014;7.652;2022-12-17T06:16:17;1.50;99.90
3752;DHT22;50827;47.014;7.652;2022-12-17T06:19:03;1.50;99.90
3752;DHT22;50827;47.014;7.652;2022-12-17T06:21:48;1.50;99.90
3752;DHT22;50827;47.014;7.652;2022-12-17T06:24:34;1.50;99.90
3752;DHT22;50827;47.014;7.652;2022-12-17T06:27:19;1.40;99.90
3752;DHT22;50827;47.014;7.652;2022-12-17T06:30:04;1.50;99.90
3752;DHT22;50827;47.014;7.652;2022-12-17T06:32:50;1.50;99.90
3752;DHT22;50827;47.014;7.652;2022-12-17T06:35:35;1.50;99.90
3752;DHT22;50827;47.014;7.652;2022-12-17T06:38:20;1.50;99.90
3752;DHT22;50827;47.014;7.652;2022-12-17T06:41:05;1.50;99.90
3752;DHT22;50827;47.014;7.652;2022-12-17T06:43:51;1.50;99.90
3752;DHT22;50827;47.014;7.652;2022-12-17T06:46:36;1.50;99.90
3752;DHT22;50827;47.014;7.652;2022-12-17T06:49:22;1.50;99.90
3752;DHT22;50827;47.014;7.652;2022-12-17T06:52:07;1.50;99.90
3752;DHT22;50827;47.014;7.652;2022-12-17T06:54:52;1.50;99.90
3752;DHT22;50827;47.014;7.652;2022-12-17T06:57:38;1.60;99.90
3752;DHT22;50827;47.014;7.652;2022-12-17T07:00:23;1.60;99.90
3752;DHT22;50827;47.014;7.652;2022-12-17T07:03:10;1.60;99.90
3752;DHT22;50827;47.014;7.652;2022-12-17T07:05:59;1.60;99.90
3752;DHT22;50827;47.014;7.652;2022-12-17T07:08:45;1.70;99.90
3752;DHT22;50827;47.014;7.652;2022-12-17T07:11:30;1.60;99.90
3752;DHT22;50827;47.014;7.652;2022-12-17T07:14:16;1.50;99.90
3752;DHT22;50827;47.014;7.652;2022-12-17T07:17:01;1.50;99.90
3752;DHT22;50827;47.014;7.652;2022-12-17T07:19:46;1.40;99.90
3752;DHT22;50827;47.014;7.652;2022-12-17T07:22:32;1.40;99.90
3752;DHT22;50827;47.014;7.652;2022-12-17T07:25:19;1.50;99.90
3752;DHT22;50827;47.014;7.652;2022-12-17T07:28:24;1.50;99.90
3752;DHT22;50827;47.014;7.652;2022-12-17T07:31:09;1.50;99.90
3752;DHT22;50827;47.014;7.652;2022-12-17T07:33:54;1.60;99.90
3752;DHT22;50827;47.014;7.652;2022-12-17T07:36:39;1.60;99.90
3752;DHT22;50827;47.014;7.652;2022-12-17T07:39:24;1.60;99.90
3752;DHT22;50827;47.014;7.652;2022-12-17T07:42:10;1.60;99.90
3752;DHT22;50827;47.014;7.652;2022-12-17T07:44:55;1.60;99.90
3752;DHT22;50827;47.014;7.652;2022-12-17T07:47:41;1.60;99.90
3752;DHT22;50827;47.014;7.652;2022-12-17T07:50:26;1.60;99.90
3752;DHT22;50827;47.014;7.652;2022-12-17T07:53:12;1.60;99.90
3752;DHT22;50827;47.014;7.652;2022-12-17T07:55:58;1.50;99.90
3752;DHT22;50827;47.014;7.652;2022-12-17T07:58:44;1.50;99.90
3752;DHT22;50827;47.014;7.652;2022-12-17T08:01:29;1.40;99.90
3752;DHT22;50827;47.014;7.652;2022-12-17T08:04:14;1.50;99.90
3752;DHT22;50827;47.014;7.652;2022-12-17T08:07:00;1.50;99.90
3752;DHT22;50827;47.014;7.652;2022-12-17T08:09:45;1.60;99.90
3752;DHT22;50827;47.014;7.652;2022-12-17T08:12:30;1.50;99.90
3752;DHT22;50827;47.014;7.652;2022-12-17T08:15:16;1.60;99.90
3752;DHT22;50827;47.014;7.652;2022-12-17T08:18:01;1.60;99.90
3752;DHT22;50827;47.014;7.652;2022-12-17T08:20:52;1.70;99.90
3752;DHT22;50827;47.014;7.652;2022-12-17T08:23:37;1.70;99.90
3752;DHT22;50827;47.014;7.652;2022-12-17T08:26:33;1.70;99.90
3752;DHT22;50827;47.014;7.652;2022-12-17T08:29:19;1.70;99.90
3752;DHT22;50827;47.014;7.652;2022-12-17T08:32:04;1.70;99.90
3752;DHT22;50827;47.014;7.652;2022-12-17T08:34:50;1.70;99.90
3752;DHT22;50827;47.014;7.652;2022-12-17T08:37:35;1.70;99.90
3752;DHT22;50827;47.014;7.652;2022-12-17T08:40:20;1.80;99.90
3752;DHT22;50827;47.014;7.652;2022-12-17T08:43:05;1.80;99.90
3752;DHT22;50827;47.014;7.652;2022-12-17T08:45:51;1.80;99.90
3752;DHT22;50827;47.014;7.652;2022-12-17T08:48:37;1.80;99.90
3752;DHT22;50827;47.014;7.652;2022-12-17T08:51:23;1.90;99.90
3752;DHT22;50827;47.014;7.652;2022-12-17T08:54:08;2.00;99.90
3752;DHT22;50827;47.014;7.652;2022-12-17T08:56:54;2.10;99.90
3752;DHT22;50827;47.014;7.652;2022-12-17T08:59:56;2.10;99.90
3752;DHT22;50827;47.014;7.652;2022-12-17T09:02:41;2.10;99.90
3752;DHT22;50827;47.014;7.652;2022-12-17T09:05:27;2.10;99.90
3752;DHT22;50827;47.014;7.652;2022-12-17T09:08:12;2.10;99.90
3752;DHT22;50827;47.014;7.652;2022-12-17T09:10:59;2.10;99.90
3752;DHT22;50827;47.014;7.652;2022-12-17T09:13:45;2.10;99.90
3752;DHT22;50827;47.014;7.652;2022-12-17T09:16:30;2.10;99.90
3752;DHT22;50827;47.014;7.652;2022-12-17T09:19:16;2.10;99.90
3752;DHT22;50827;47.014;7.652;2022-12-17T09:22:02;2.20;99.90
3752;DHT22;50827;47.014;7.652;2022-12-17T09:24:47;2.20;99.90
3752;DHT22;50827;47.014;7.652;2022-12-17T09:27:32;2.30;99.90
3752;DHT22;50827;47.014;7.652;2022-12-17T09:30:18;2.30;99.90
3752;DHT22;50827;47.014;7.652;2022-12-17T09:33:03;2.20;99.90
3752;DHT22;50827;47.014;7.652;2022-12-17T09:35:49;2.30;99.90
3752;DHT22;50827;47.014;7.652;2022-12-17T09:38:34;2.30;99.90
3752;DHT22;50827;47.014;7.652;2022-12-17T09:44:43;2.10;99.90
3752;DHT22;50827;47.014;7.652;2022-12-17T09:47:52;2.10;99.90
3752;DHT22;50827;47.014;7.652;2022-12-17T09:50:42;2.10;99.90
3752;DHT22;50827;47.014;7.652;2022-12-17T09:53:35;1.90;99.90
3752;DHT22;50827;47.014;7.652;2022-12-17T09:56:25;1.90;99.90
3752;DHT22;50827;47.014;7.652;2022-12-17T09:59:21;1.90;99.90
3752;DHT22;50827;47.014;7.652;2022-12-17T10:02:19;1.80;99.90
3752;DHT22;50827;47.014;7.652;2022-12-17T10:05:13;1.90;99.90
3752;DHT22;50827;47.014;7.652;2022-12-17T10:08:00;1.90;99.90
3752;DHT22;50827;47.014;7.652;2022-12-17T10:10:48;2.00;99.90
3752;DHT22;50827;47.014;7.652;2022-12-17T10:13:33;2.00;99.90
3752;DHT22;50827;47.014;7.652;2022-12-17T10:16:28;1.90;99.90
3752;DHT22;50827;47.014;7.652;2022-12-17T10:19:35;1.80;99.90
3752;DHT22;50827;47.014;7.652;2022-12-17T10:22:22;1.90;99.90
3752;DHT22;50827;47.014;7.652;2022-12-17T10:25:18;1.90;99.90
3752;DHT22;50827;47.014;7.652;2022-12-17T10:28:06;1.70;99.90
3752;DHT22;50827;47.014;7.652;2022-12-17T10:30:51;1.80;99.90
3752;DHT22;50827;47.014;7.652;2022-12-17T10:33:38;1.80;99.90
3752;DHT22;50827;47.014;7.652;2022-12-17T10:36:25;1.80;99.90
3752;DHT22;50827;47.014;7.652;2022-12-17T10:39:22;1.90;99.90
3752;DHT22;50827;47.014;7.652;2022-12-17T10:42:30;2.00;99.90
3752;DHT22;50827;47.014;7.652;2022-12-17T10:48:30;1.90;99.90
3752;DHT22;50827;47.014;7.652;2022-12-17T10:51:36;1.70;99.90
3752;DHT22;50827;47.014;7.652;2022-12-17T10:54:29;1.70;99.90
3752;DHT22;50827;47.014;7.652;2022-12-17T10:57:32;1.70;99.90
3752;DHT22;50827;47.014;7.652;2022-12-17T11:00:23;1.70;99.90
3752;DHT22;50827;47.014;7.652;2022-12-17T11:06:46;1.60;99.90
3752;DHT22;50827;47.014;7.652;2022-12-17T11:09:40;1.60;99.90
3752;DHT22;50827;47.014;7.652;2022-12-17T11:12:42;1.50;99.90
3752;DHT22;50827;47.014;7.652;2022-12-17T11:15:46;1.60;99.90
3752;DHT22;50827;47.014;7.652;2022-12-17T11:18:45;1.70;99.90
3752;DHT22;50827;47.014;7.652;2022-12-17T11:21:42;1.70;99.90
3752;DHT22;50827;47.014;7.652;2022-12-17T11:28:34;1.60;99.90
3752;DHT22;50827;47.014;7.652;2022-12-17T11:37:17;1.60;99.90
3752;DHT22;50827;47.014;7.652;2022-12-17T11:40:11;1.60;99.90
3752;DHT22;50827;47.014;7.652;2022-12-17T11:43:24;1.60;99.90
3752;DHT22;50827;47.014;7.652;2022-12-17T11:46:23;1.70;99.90
3752;DHT22;50827;47.014;7.652;2022-12-17T11:55:19;1.80;99.90
3752;DHT22;50827;47.014;7.652;2022-12-17T12:01:32;1.90;99.90
3752;DHT22;50827;47.014;7.652;2022-12-17T12:08:08;1.90;99.90
3752;DHT22;50827;47.014;7.652;2022-12-17T12:11:23;1.90;99.90
3752;DHT22;50827;47.014;7.652;2022-12-17T12:14:29;1.90;99.90
3752;DHT22;50827;47.014;7.652;2022-12-17T12:32:38;2.00;99.90
3752;DHT22;50827;47.014;7.652;2022-12-17T12:35:03;2.10;99.90
3752;DHT22;50827;47.014;7.652;2022-12-17T12:37:50;2.10;99.90
3752;DHT22;50827;47.014;7.652;2022-12-17T12:40:51;2.10;99.90
3752;DHT22;50827;47.014;7.652;2022-12-17T12:43:43;2.20;99.90
3752;DHT22;50827;47.014;7.652;2022-12-17T12:46:51;2.10;99.90
3752;DHT22;50827;47.014;7.652;2022-12-17T12:49:53;2.20;99.90
3752;DHT22;50827;47.014;7.652;2022-12-17T12:52:41;2.10;99.90
3752;DHT22;50827;47.014;7.652;2022-12-17T12:55:37;2.00;99.90
3752;DHT22;50827;47.014;7.652;2022-12-17T12:58:31;2.00;99.90
3752;DHT22;50827;47.014;7.652;2022-12-17T13:01:17;2.00;99.90
3752;DHT22;50827;47.014;7.652;2022-12-17T13:04:22;2.00;99.90
3752;DHT22;50827;47.014;7.652;2022-12-17T13:07:35;1.90;99.90
3752;DHT22;50827;47.014;7.652;2022-12-17T13:10:01;1.80;99.90
3752;DHT22;50827;47.014;7.652;2022-12-17T13:12:32;1.70;99.90
3752;DHT22;50827;47.014;7.652;2022-12-17T13:17:38;1.60;99.90
3752;DHT22;50827;47.014;7.652;2022-12-17T13:20:26;1.70;99.90
3752;DHT22;50827;47.014;7.652;2022-12-17T13:23:30;1.80;99.90
3752;DHT22;50827;47.014;7.652;2022-12-17T13:26:21;1.80;99.90
3752;DHT22;50827;47.014;7.652;2022-12-17T13:29:01;1.70;99.90
3752;DHT22;50827;47.014;7.652;2022-12-17T13:31:47;1.80;99.90
3752;DHT22;50827;47.014;7.652;2022-12-17T13:34:38;1.80;99.90
3752;DHT22;50827;47.014;7.652;2022-12-17T13:37:10;1.80;99.90
3752;DHT22;50827;47.014;7.652;2022-12-17T13:42:35;1.80;99.90
3752;DHT22;50827;47.014;7.652;2022-12-17T13:45:02;1.80;99.90
3752;DHT22;50827;47.014;7.652;2022-12-17T13:47:32;1.90;99.90
3752;DHT22;50827;47.014;7.652;2022-12-17T13:50:02;1.90;99.90
3752;DHT22;50827;47.014;7.652;2022-12-17T13:52:50;2.00;99.90
3752;DHT22;50827;47.014;7.652;2022-12-17T13:55:19;2.00;99.90
3752;DHT22;50827;47.014;7.652;2022-12-17T13:57:48;2.00;99.90
3752;DHT22;50827;47.014;7.652;2022-12-17T14:02:46;1.80;99.90
3752;DHT22;50827;47.014;7.652;2022-12-17T14:05:28;1.90;99.90
3752;DHT22;50827;47.014;7.652;2022-12-17T14:08:00;1.90;99.90
3752;DHT22;50827;47.014;7.652;2022-12-17T14:10:28;2.00;99.90
3752;DHT22;50827;47.014;7.652;2022-12-17T14:13:12;2.00;99.90
3752;DHT22;50827;47.014;7.652;2022-12-17T14:15:46;2.10;99.90
3752;DHT22;50827;47.014;7.652;2022-12-17T14:18:19;2.10;99.90
3752;DHT22;50827;47.014;7.652;2022-12-17T14:20:48;2.20;99.90
3752;DHT22;50827;47.014;7.652;2022-12-17T14:23:28;2.10;99.90
3752;DHT22;50827;47.014;7.652;2022-12-17T14:25:55;2.20;99.90
3752;DHT22;50827;47.014;7.652;2022-12-17T14:30:51;2.20;99.90
3752;DHT22;50827;47.014;7.652;2022-12-17T14:33:41;2.20;99.90
3752;DHT22;50827;47.014;7.652;2022-12-17T14:38:55;2.20;99.90
3752;DHT22;50827;47.014;7.652;2022-12-17T14:41:23;2.20;99.90
3752;DHT22;50827;47.014;7.652;2022-12-17T14:44:19;2.20;99.90
3752;DHT22;50827;47.014;7.652;2022-12-17T14:46:47;2.10;99.90
3752;DHT22;50827;47.014;7.652;2022-12-17T14:49:17;2.10;99.90
3752;DHT22;50827;47.014;7.652;2022-12-17T14:51:46;2.10;99.90
3752;DHT22;50827;47.014;7.652;2022-12-17T14:56:59;2.20;99.90
3752;DHT22;50827;47.014;7.652;2022-12-17T14:59:37;2.20;99.90
3752;DHT22;50827;47.014;7.652;2022-12-17T15:02:25;2.20;99.90
3752;DHT22;50827;47.014;7.652;2022-12-17T15:05:00;2.20;99.90
3752;DHT22;50827;47.014;7.652;2022-12-17T15:07:29;2.20;99.90
3752;DHT22;50827;47.014;7.652;2022-12-17T15:09:56;2.20;99.90
3752;DHT22;50827;47.014;7.652;2022-12-17T15:12:36;2.20;99.90
3752;DHT22;50827;47.014;7.652;2022-12-17T15:15:03;2.20;99.90
3752;DHT22;50827;47.014;7.652;2022-12-17T15:17:29;2.10;99.90
3752;DHT22;50827;47.014;7.652;2022-12-17T15:19:56;2.10;99.90
3752;DHT22;50827;47.014;7.652;2022-12-17T15:22:23;2.10;99.90
3752;DHT22;50827;47.014;7.652;2022-12-17T15:24:50;2.10;99.90
3752;DHT22;50827;47.014;7.652;2022-12-17T15:27:17;2.10;99.90
3752;DHT22;50827;47.014;7.652;2022-12-17T15:29:44;2.10;99.90
3752;DHT22;50827;47.014;7.652;2022-12-17T15:32:21;2.00;99.90
3752;DHT22;50827;47.014;7.652;2022-12-17T15:34:48;2.00;99.90
3752;DHT22;50827;47.014;7.652;2022-12-17T15:37:16;2.00;99.90
3752;DHT22;50827;47.014;7.652;2022-12-17T15:39:48;2.00;99.90
3752;DHT22;50827;47.014;7.652;2022-12-17T15:42:15;2.00;99.90
3752;DHT22;50827;47.014;7.652;2022-12-17T15:45:00;2.10;99.90
3752;DHT22;50827;47.014;7.652;2022-12-17T15:47:26;2.10;99.90
3752;DHT22;50827;47.014;7.652;2022-12-17T15:49:53;2.10;99.90
3752;DHT22;50827;47.014;7.652;2022-12-17T15:52:24;2.10;99.90
3752;DHT22;50827;47.014;7.652;2022-12-17T15:54:54;2.10;99.90
3752;DHT22;50827;47.014;7.652;2022-12-17T15:57:21;2.00;99.90
3752;DHT22;50827;47.014;7.652;2022-12-17T15:59:49;2.10;99.90
3752;DHT22;50827;47.014;7.652;2022-12-17T16:02:16;2.10;99.90
3752;DHT22;50827;47.014;7.652;2022-12-17T16:04:45;2.10;99.90
3752;DHT22;50827;47.014;7.652;2022-12-17T16:07:12;2.10;99.90
3752;DHT22;50827;47.014;7.652;2022-12-17T16:09:39;2.10;99.90
3752;DHT22;50827;47.014;7.652;2022-12-17T16:12:05;2.10;99.90
3752;DHT22;50827;47.014;7.652;2022-12-17T16:14:32;2.20;99.90
3752;DHT22;50827;47.014;7.652;2022-12-17T16:16:59;2.20;99.90
3752;DHT22;50827;47.014;7.652;2022-12-17T16:19:26;2.20;99.90
3752;DHT22;50827;47.014;7.652;2022-12-17T16:21:52;2.20;99.90
3752;DHT22;50827;47.014;7.652;2022-12-17T16:24:20;2.20;99.90
3752;DHT22;50827;47.014;7.652;2022-12-17T16:26:46;2.20;99.90
3752;DHT22;50827;47.014;7.652;2022-12-17T16:29:13;2.20;99.90
3752;DHT22;50827;47.014;7.652;2022-12-17T16:31:40;2.20;99.90
3752;DHT22;50827;47.014;7.652;2022-12-17T16:34:08;2.20;99.90
3752;DHT22;50827;47.014;7.652;2022-12-17T16:36:35;2.20;99.90
3752;DHT22;50827;47.014;7.652;2022-12-17T16:39:03;2.20;99.90
3752;DHT22;50827;47.014;7.652;2022-12-17T16:41:30;2.10;99.90
3752;DHT22;50827;47.014;7.652;2022-12-17T16:43:57;2.20;99.90
3752;DHT22;50827;47.014;7.652;2022-12-17T16:46:27;2.20;99.90
3752;DHT22;50827;47.014;7.652;2022-12-17T16:48:56;2.20;99.90
3752;DHT22;50827;47.014;7.652;2022-12-17T16:51:25;2.20;99.90
3752;DHT22;50827;47.014;7.652;2022-12-17T16:53:55;2.20;99.90
3752;DHT22;50827;47.014;7.652;2022-12-17T16:56:25;2.20;99.90
3752;DHT22;50827;47.014;7.652;2022-12-17T16:58:55;2.20;99.90
3752;DHT22;50827;47.014;7.652;2022-12-17T17:01:25;2.10;99.90
3752;DHT22;50827;47.014;7.652;2022-12-17T17:03:52;2.10;99.90
3752;DHT22;50827;47.014;7.652;2022-12-17T17:06:19;2.10;99.90
3752;DHT22;50827;47.014;7.652;2022-12-17T17:08:47;2.20;99.90
3752;DHT22;50827;47.014;7.652;2022-12-17T17:11:17;2.10;99.90
3752;DHT22;50827;47.014;7.652;2022-12-17T17:13:54;2.00;99.90
3752;DHT22;50827;47.014;7.652;2022-12-17T17:16:22;2.00;99.90
3752;DHT22;50827;47.014;7.652;2022-12-17T17:18:51;2.10;99.90
3752;DHT22;50827;47.014;7.652;2022-12-17T17:21:34;2.00;99.90
3752;DHT22;50827;47.014;7.652;2022-12-17T17:24:05;2.00;99.90
3752;DHT22;50827;47.014;7.652;2022-12-17T17:26:33;2.10;99.90
3752;DHT22;50827;47.014;7.652;2022-12-17T17:29:01;2.10;99.90
3752;DHT22;50827;47.014;7.652;2022-12-17T17:31:27;2.00;99.90
3752;DHT22;50827;47.014;7.652;2022-12-17T17:34:15;2.00;99.90
3752;DHT22;50827;47.014;7.652;2022-12-17T17:36:42;2.00;99.90
3752;DHT22;50827;47.014;7.652;2022-12-17T17:39:09;1.90;99.90
3752;DHT22;50827;47.014;7.652;2022-12-17T17:41:36;1.90;99.90
3752;DHT22;50827;47.014;7.652;2022-12-17T17:44:04;1.90;99.90
3752;DHT22;50827;47.014;7.652;2022-12-17T17:46:32;1.90;99.90
3752;DHT22;50827;47.014;7.652;2022-12-17T17:49:02;1.90;99.90
3752;DHT22;50827;47.014;7.652;2022-12-17T17:51:34;1.90;99.90
3752;DHT22;50827;47.014;7.652;2022-12-17T17:54:21;1.80;99.90
3752;DHT22;50827;47.014;7.652;2022-12-17T17:56:47;1.90;99.90
3752;DHT22;50827;47.014;7.652;2022-12-17T17:59:16;1.90;99.90
3752;DHT22;50827;47.014;7.652;2022-12-17T18:01:47;1.90;99.90
3752;DHT22;50827;47.014;7.652;2022-12-17T18:04:19;2.00;99.90
3752;DHT22;50827;47.014;7.652;2022-12-17T18:06:47;2.10;99.90
3752;DHT22;50827;47.014;7.652;2022-12-17T18:09:33;2.20;99.90
3752;DHT22;50827;47.014;7.652;2022-12-17T18:12:01;2.40;99.90
3752;DHT22;50827;47.014;7.652;2022-12-17T18:14:48;2.50;99.90
3752;DHT22;50827;47.014;7.652;2022-12-17T18:17:35;2.60;99.90
3752;DHT22;50827;47.014;7.652;2022-12-17T18:20:02;2.70;99.90
3752;DHT22;50827;47.014;7.652;2022-12-17T18:22:28;2.50;99.90
3752;DHT22;50827;47.014;7.652;2022-12-17T18:24:55;2.50;99.90
3752;DHT22;50827;47.014;7.652;2022-12-17T18:27:21;2.40;99.90
3752;DHT22;50827;47.014;7.652;2022-12-17T18:29:48;2.40;99.90
3752;DHT22;50827;47.014;7.652;2022-12-17T18:32:15;2.30;99.90
3752;DHT22;50827;47.014;7.652;2022-12-17T18:34:41;2.10;99.90
3752;DHT22;50827;47.014;7.652;2022-12-17T18:37:08;2.10;99.90
3752;DHT22;50827;47.014;7.652;2022-12-17T18:39:35;1.90;99.90
3752;DHT22;50827;47.014;7.652;2022-12-17T18:42:01;1.90;99.90
3752;DHT22;50827;47.014;7.652;2022-12-17T18:44:46;1.80;99.90
3752;DHT22;50827;47.014;7.652;2022-12-17T18:47:13;1.80;99.90
3752;DHT22;50827;47.014;7.652;2022-12-17T18:49:40;1.70;99.90
3752;DHT22;50827;47.014;7.652;2022-12-17T18:52:06;1.60;99.90